Time;durP1;ratioP1;P1;durP2;ratioP2;P2;SDS_P1;SDS_P2;PMS_P1;PMS_P2;Temp;Humidity;BMP_temperature;BMP_pressure;BME280_temperature;BME280_humidity;BME280_pressure;Samples;Min_cycle;Max_cycle;Signal;HPM_P1;HPM_P2
2022/07/17 00:01:24;;;;;;;10.00;3.03;;;;;;;26.22;35.87;102840.56;5091733;28;20479;-78
2022/07/17 00:03:49;;;;;;;4.65;2.10;;;;;;;26.06;36.14;102845.75;5090659;28;20031;-78
2022/07/17 00:06:15;;;;;;;4.10;2.03;;;;;;;26.15;35.58;102844.47;5092452;28;20588;-78
2022/07/17 00:08:40;;;;;;;6.45;2.40;;;;;;;25.73;36.83;102838.22;5091063;28;20476;-78
2022/07/17 00:11:05;;;;;;;5.53;1.90;;;;;;;26.09;36.55;102844.75;5090929;28;20539;-78
2022/07/17 00:13:31;;;;;;;5.93;2.05;;;;;;;25.70;37.04;102837.47;5091201;28;20023;-78
2022/07/17 00:15:56;;;;;;;4.75;2.00;;;;;;;26.18;36.06;102838.09;5091397;28;20119;-78
2022/07/17 00:18:21;;;;;;;5.50;2.17;;;;;;;26.20;36.21;102839.78;5090632;28;20476;-78
2022/07/17 00:20:47;;;;;;;4.57;1.95;;;;;;;26.08;36.31;102848.38;5092601;28;20028;-78
2022/07/17 00:23:12;;;;;;;7.20;2.45;;;;;;;25.79;37.35;102839.75;5091461;28;20062;-78
2022/07/17 00:25:38;;;;;;;8.30;2.15;;;;;;;26.09;36.50;102836.72;5090673;28;20046;-78
2022/07/17 00:28:04;;;;;;;6.47;2.60;;;;;;;26.63;35.05;102834.25;5090994;28;20103;-77
2022/07/17 00:30:30;;;;;;;3.60;1.92;;;;;;;26.47;35.77;102836.75;5091183;28;20126;-78
2022/07/17 00:32:55;;;;;;;4.75;1.95;;;;;;;26.11;36.39;102840.19;5090767;28;20028;-78
2022/07/17 00:35:21;;;;;;;9.48;2.45;;;;;;;25.93;36.65;102838.28;5091312;28;20089;-78
2022/07/17 00:37:48;;;;;;;4.97;2.50;;;;;;;26.13;36.07;102834.75;5091145;28;20028;-78
2022/07/17 00:40:18;;;;;;;6.35;2.20;;;;;;;26.15;36.29;102828.38;5091581;28;20028;-78
2022/07/17 00:42:43;;;;;;;5.45;2.60;;;;;;;25.75;37.12;102830.13;5090938;28;20116;-77
2022/07/17 00:45:10;;;;;;;4.40;2.10;;;;;;;25.84;36.91;102831.50;5090656;28;20134;-78
2022/07/17 00:47:58;;;;;;;3.35;2.30;;;;;;;25.80;37.16;102822.75;5090133;28;20055;-78
2022/07/17 00:50:28;;;;;;;6.60;2.30;;;;;;;26.17;35.88;102831.00;5090768;28;20093;-78
2022/07/17 00:52:53;;;;;;;6.22;2.40;;;;;;;26.10;35.93;102829.53;5090915;28;20031;-78
2022/07/17 00:55:19;;;;;;;5.80;2.25;;;;;;;26.28;35.72;102819.78;5090437;28;20012;-77
2022/07/17 00:57:47;;;;;;;3.50;2.00;;;;;;;26.19;35.87;102818.41;5090870;28;20503;-77
2022/07/17 01:00:13;;;;;;;4.82;2.20;;;;;;;26.07;36.26;102825.19;5091062;28;20032;-78
2022/07/17 01:02:39;;;;;;;5.18;2.08;;;;;;;25.64;37.12;102817.19;5090995;28;20016;-77
2022/07/17 01:05:05;;;;;;;9.02;2.17;;;;;;;26.04;36.28;102810.09;5090857;28;20081;-78
2022/07/17 01:07:30;;;;;;;4.18;2.20;;;;;;;25.95;36.83;102805.13;5089961;28;20059;-78
2022/07/17 01:09:56;;;;;;;5.35;2.30;;;;;;;25.78;36.78;102797.84;5091591;28;20047;-78
2022/07/17 01:12:23;;;;;;;4.95;1.98;;;;;;;25.77;37.80;102789.88;5096014;28;20476;-78
2022/07/17 01:14:49;;;;;;;5.10;2.67;;;;;;;25.67;38.09;102789.41;5095161;28;20494;-78
2022/07/17 01:17:15;;;;;;;10.60;2.33;;;;;;;25.89;37.69;102790.19;5095864;28;20039;-78
2022/07/17 01:19:41;;;;;;;3.65;2.42;;;;;;;25.69;38.99;102798.22;5094763;28;20028;-78
2022/07/17 01:22:06;;;;;;;6.07;2.20;;;;;;;26.03;38.04;102791.44;5093948;28;20117;-77
2022/07/17 01:24:31;;;;;;;5.15;2.65;;;;;;;25.80;38.14;102801.34;5095538;28;20027;-78
2022/07/17 01:26:57;;;;;;;6.35;2.00;;;;;;;25.65;38.77;102813.56;5095616;28;20395;-78
2022/07/17 01:29:23;;;;;;;6.82;1.88;;;;;;;25.82;38.28;102815.50;5093745;28;20041;-78
2022/07/17 01:31:49;;;;;;;7.47;1.77;;;;;;;25.74;38.25;102818.50;5095590;28;20028;-77
2022/07/17 01:34:15;;;;;;;7.43;1.90;;;;;;;25.72;38.21;102808.84;5094634;28;20028;-77
2022/07/17 01:36:41;;;;;;;5.30;2.05;;;;;;;25.78;38.21;102813.03;5093751;28;20031;-78
2022/07/17 01:39:06;;;;;;;7.93;1.63;;;;;;;25.30;39.05;102801.66;5094315;28;20115;-78
2022/07/17 01:41:32;;;;;;;3.88;1.70;;;;;;;25.83;37.90;102805.66;5094289;28;20039;-78
2022/07/17 01:43:58;;;;;;;8.40;1.80;;;;;;;25.94;37.40;102802.50;5091371;28;20028;-78
2022/07/17 01:46:24;;;;;;;8.35;3.08;;;;;;;25.16;38.44;102805.75;5056747;28;20043;-78
2022/07/17 01:48:50;;;;;;;3.20;2.15;;;;;;;24.68;39.90;102804.09;5057284;28;20050;-78
2022/07/17 01:51:15;;;;;;;6.38;2.20;;;;;;;25.49;38.24;102796.44;5056558;28;20541;-78
2022/07/17 01:53:40;;;;;;;8.65;2.60;;;;;;;24.76;39.46;102796.66;5057115;28;20027;-78
2022/07/17 01:56:06;;;;;;;4.13;2.25;;;;;;;25.28;38.79;102792.78;5056954;28;20041;-78
2022/07/17 01:58:33;;;;;;;4.63;2.45;;;;;;;25.57;37.99;102789.81;5056236;28;20480;-78
2022/07/17 02:00:58;;;;;;;7.55;2.55;;;;;;;25.37;38.98;102793.31;5056933;28;20024;-78
2022/07/17 02:03:23;;;;;;;5.47;2.78;;;;;;;25.19;39.07;102799.41;5056366;28;20021;-77
2022/07/17 02:05:49;;;;;;;4.93;2.75;;;;;;;25.16;39.00;102795.03;5056658;28;20028;-78
2022/07/17 02:08:14;;;;;;;4.40;2.17;;;;;;;25.61;38.11;102803.03;5056536;28;20038;-78
2022/07/17 02:10:40;;;;;;;5.70;2.30;;;;;;;25.71;37.85;102802.59;5074092;28;20034;-78
2022/07/17 02:13:05;;;;;;;7.13;2.67;;;;;;;25.64;37.44;102800.25;5056544;28;20027;-77
2022/07/17 02:15:30;;;;;;;7.30;2.25;;;;;;;25.34;38.36;102801.47;5056812;28;20043;-78
2022/07/17 02:17:56;;;;;;;5.45;2.15;;;;;;;25.29;38.25;102806.09;5055887;28;20020;-78
2022/07/17 02:20:22;;;;;;;4.90;2.17;;;;;;;25.56;37.49;102796.09;5056387;28;20376;-78
2022/07/17 02:22:47;;;;;;;3.63;2.50;;;;;;;25.18;38.62;102808.34;5055315;28;20404;-77
2022/07/17 02:25:13;;;;;;;5.32;2.30;;;;;;;25.50;38.03;102799.03;5074137;28;20100;-78
2022/07/17 02:27:40;;;;;;;4.82;2.08;;;;;;;25.68;37.51;102793.84;5056594;28;20024;-77
2022/07/17 02:30:09;;;;;;;7.18;2.28;;;;;;;25.15;38.32;102795.97;5056445;28;20036;-78
2022/07/17 02:32:34;;;;;;;7.57;3.67;;;;;;;25.19;38.50;102794.91;5055769;28;20067;-78
2022/07/17 02:35:00;;;;;;;6.68;2.80;;;;;;;25.09;38.07;102793.56;5056136;28;20056;-78
2022/07/17 02:37:25;;;;;;;4.40;2.40;;;;;;;25.12;38.75;102798.78;5056040;28;20024;-77
2022/07/17 02:39:53;;;;;;;8.82;2.50;;;;;;;25.23;37.80;102807.22;5055797;28;20013;-81
2022/07/17 02:42:23;;;;;;;7.10;2.72;;;;;;;24.76;38.87;102814.47;5056046;28;20024;-78
2022/07/17 02:44:49;;;;;;;8.50;3.00;;;;;;;25.04;38.49;102820.47;5070638;28;20392;-77
2022/07/17 02:47:41;;;;;;;7.82;3.40;;;;;;;25.41;37.77;102815.47;5093348;28;20061;-77
2022/07/17 02:50:09;;;;;;;5.78;2.47;;;;;;;25.42;37.54;102819.91;5088118;28;20036;-78
2022/07/17 02:52:34;;;;;;;5.45;2.47;;;;;;;25.15;38.01;102813.84;5093423;28;20027;-78
2022/07/17 02:55:00;;;;;;;7.78;2.67;;;;;;;24.60;39.20;102832.91;5092635;28;20072;-78
2022/07/17 02:57:25;;;;;;;8.63;2.70;;;;;;;25.05;38.73;102837.44;5093627;28;20024;-78
2022/07/17 02:59:51;;;;;;;5.35;2.38;;;;;;;25.35;38.00;102842.50;5092111;28;20012;-78
2022/07/17 03:02:16;;;;;;;5.78;2.38;;;;;;;25.43;37.84;102840.38;5092730;28;20536;-78
2022/07/17 03:04:42;;;;;;;5.78;2.83;;;;;;;25.35;37.61;102834.47;5092502;28;20020;-78
2022/07/17 03:07:07;;;;;;;7.97;2.95;;;;;;;25.27;38.09;102833.88;5092004;28;20027;-77
2022/07/17 03:09:32;;;;;;;5.15;3.30;;;;;;;25.05;38.40;102834.75;5092475;28;20020;-78
2022/07/17 03:11:58;;;;;;;5.82;2.72;;;;;;;25.12;38.16;102841.59;5092182;28;20047;-78
2022/07/17 03:14:24;;;;;;;5.10;2.88;;;;;;;24.93;38.66;102836.09;5091701;28;20020;-77
2022/07/17 03:16:49;;;;;;;6.25;3.20;;;;;;;24.92;38.92;102822.78;5092318;28;20031;-78
2022/07/17 03:19:15;;;;;;;10.55;2.70;;;;;;;24.83;39.17;102829.38;5093328;28;20024;-78
2022/07/17 03:21:40;;;;;;;4.70;2.50;;;;;;;25.01;38.61;102827.78;5091353;28;20020;-77
2022/07/17 03:24:05;;;;;;;9.48;2.92;;;;;;;24.81;39.04;102837.47;5091867;28;20480;-77
2022/07/17 03:26:31;;;;;;;5.50;2.70;;;;;;;25.12;38.19;102830.88;5093367;28;20448;-78
2022/07/17 03:28:56;;;;;;;3.92;2.75;;;;;;;24.86;39.22;102835.47;5091279;28;20434;-78
2022/07/17 03:31:21;;;;;;;7.00;3.00;;;;;;;24.63;39.69;102843.50;5091671;28;20020;-77
2022/07/17 03:33:47;;;;;;;6.53;3.08;;;;;;;25.27;37.96;102831.22;5091727;28;20020;-77
2022/07/17 03:36:12;;;;;;;4.82;2.80;;;;;;;24.98;38.35;102827.91;5091123;28;20024;-77
2022/07/17 03:38:38;;;;;;;10.77;2.72;;;;;;;25.33;37.68;102839.00;5091924;28;20024;-78
2022/07/17 03:41:03;;;;;;;6.43;3.10;;;;;;;25.42;37.13;102833.28;5091961;28;20078;-78
2022/07/17 03:43:29;;;;;;;5.38;2.67;;;;;;;25.06;38.07;102836.50;5091458;28;20032;-79
2022/07/17 03:45:54;;;;;;;3.20;2.28;;;;;;;25.14;37.82;102834.38;5074758;28;20056;-78
2022/07/17 03:48:19;;;;;;;4.72;2.30;;;;;;;25.08;37.93;102833.75;5055322;28;20396;-80
2022/07/17 03:50:45;;;;;;;4.25;2.00;;;;;;;25.22;37.12;102832.28;5054314;28;20476;-79
2022/07/17 03:53:10;;;;;;;5.43;2.53;;;;;;;25.15;37.33;102830.75;5054999;28;20024;-79
2022/07/17 03:55:36;;;;;;;4.65;2.45;;;;;;;24.81;37.88;102829.44;5055293;28;20017;-78
2022/07/17 03:58:01;;;;;;;3.60;2.50;;;;;;;24.92;37.97;102818.28;5054041;28;20170;-79
2022/07/17 04:00:27;;;;;;;4.97;3.00;;;;;;;24.43;38.98;102823.72;5054783;28;20464;-78
2022/07/17 04:02:52;;;;;;;4.72;2.55;;;;;;;24.35;39.33;102826.66;5054545;28;20073;-79
2022/07/17 04:05:17;;;;;;;10.48;2.65;;;;;;;25.04;37.63;102825.84;5054020;28;20044;-79
2022/07/17 04:07:44;;;;;;;7.55;3.22;;;;;;;24.71;38.48;102841.41;5054661;28;20028;-79
2022/07/17 04:10:12;;;;;;;5.25;2.25;;;;;;;25.00;38.10;102840.25;5054651;28;20158;-79
2022/07/17 04:12:37;;;;;;;7.05;2.63;;;;;;;24.85;37.95;102839.09;5072582;28;20028;-78
2022/07/17 04:15:04;;;;;;;7.63;2.58;;;;;;;24.55;38.19;102836.63;5054820;28;20016;-79
2022/07/17 04:17:30;;;;;;;6.43;2.28;;;;;;;24.41;38.85;102838.06;5054023;28;20035;-79
2022/07/17 04:19:55;;;;;;;3.47;2.45;;;;;;;24.36;38.70;102843.59;5054761;28;20020;-79
2022/07/17 04:22:20;;;;;;;6.57;2.53;;;;;;;24.65;38.27;102847.00;5054638;28;20384;-79
2022/07/17 04:24:46;;;;;;;4.88;2.17;;;;;;;24.66;38.57;102851.41;5054235;28;20036;-79
2022/07/17 04:27:11;;;;;;;3.78;2.38;;;;;;;24.57;38.83;102849.94;5054598;28;20028;-79
2022/07/17 04:29:37;;;;;;;3.67;2.20;;;;;;;24.29;38.64;102850.06;5072580;28;20021;-79
2022/07/17 04:32:03;;;;;;;3.88;2.00;;;;;;;24.21;39.69;102847.69;5054212;28;20388;-79
2022/07/17 04:34:29;;;;;;;10.88;2.38;;;;;;;24.76;38.09;102852.81;5054461;28;20031;-79
2022/07/17 04:36:54;;;;;;;5.15;2.35;;;;;;;24.54;38.36;102861.59;5054470;28;20430;-79
2022/07/17 04:39:20;;;;;;;3.83;2.10;;;;;;;24.93;38.29;102854.81;5054090;28;20054;-79
2022/07/17 04:41:45;;;;;;;6.85;2.25;;;;;;;24.70;38.44;102850.34;5072352;28;20040;-79
2022/07/17 04:44:10;;;;;;;5.60;1.88;;;;;;;24.69;38.59;102848.63;5058651;28;20048;-79
2022/07/17 04:46:36;;;;;;;4.75;2.15;;;;;;;24.91;37.92;102843.31;5094509;28;20028;-79
2022/07/17 04:49:01;;;;;;;6.55;2.55;;;;;;;25.08;37.30;102826.59;5095453;28;20031;-79
2022/07/17 04:51:27;;;;;;;3.72;1.90;;;;;;;25.12;37.88;102830.88;5095553;28;20027;-79
2022/07/17 04:53:52;;;;;;;4.03;1.98;;;;;;;25.27;37.36;102824.03;5094955;28;20081;-78
2022/07/17 04:56:17;;;;;;;5.05;2.33;;;;;;;25.98;37.08;102822.88;5095504;28;20039;-80
2022/07/17 04:58:43;;;;;;;4.13;1.88;;;;;;;26.66;35.62;102835.94;5095218;28;20098;-79
2022/07/17 05:01:08;;;;;;;4.53;2.00;;;;;;;26.43;34.88;102832.50;5094676;28;20069;-79
2022/07/17 05:03:33;;;;;;;6.03;2.08;;;;;;;26.02;35.04;102821.81;5095303;28;20028;-80
2022/07/17 05:05:59;;;;;;;5.10;1.70;;;;;;;26.21;34.66;102820.09;5095083;28;20042;-79
2022/07/17 05:08:24;;;;;;;4.03;1.65;;;;;;;25.75;36.12;102827.44;5094371;28;20050;-79
2022/07/17 05:10:50;;;;;;;4.20;2.25;;;;;;;26.18;34.81;102828.25;5094903;28;20067;-78
2022/07/17 05:13:15;;;;;;;5.25;2.10;;;;;;;25.51;36.23;102832.91;5094307;28;20020;-78
2022/07/17 05:15:40;;;;;;;3.38;1.75;;;;;;;26.23;34.88;102831.59;5095040;28;20022;-79
2022/07/17 05:18:07;;;;;;;6.22;1.80;;;;;;;25.28;36.80;102835.59;5094873;28;20115;-79
2022/07/17 05:20:32;;;;;;;6.32;1.50;;;;;;;26.07;35.60;102835.91;5094023;28;20119;-78
2022/07/17 05:22:58;;;;;;;4.07;1.73;;;;;;;26.35;34.87;102835.53;5094799;28;20549;-79
2022/07/17 05:25:23;;;;;;;6.35;2.15;;;;;;;26.05;35.17;102827.06;5094460;28;20124;-78
2022/07/17 05:27:49;;;;;;;8.57;2.47;;;;;;;25.81;35.50;102829.84;5093778;28;20035;-79
2022/07/17 05:30:14;;;;;;;3.58;2.13;;;;;;;24.34;37.91;102832.06;5094557;28;20036;-79
2022/07/17 05:32:39;;;;;;;3.45;2.03;;;;;;;25.04;37.05;102838.34;5093976;28;20464;-78
2022/07/17 05:35:05;;;;;;;4.38;1.70;;;;;;;24.77;37.98;102851.88;5093804;28;20055;-78
2022/07/17 05:37:31;;;;;;;8.02;2.20;;;;;;;25.45;36.39;102846.53;5094377;28;20032;-78
2022/07/17 05:39:56;;;;;;;7.50;2.47;;;;;;;25.53;36.20;102847.09;5095669;28;20023;-78
2022/07/17 05:42:22;;;;;;;4.75;2.10;;;;;;;25.47;36.87;102850.03;5093726;28;20012;-78
2022/07/17 05:44:47;;;;;;;5.43;2.30;;;;;;;26.11;36.00;102847.34;5093834;28;20488;-78
2022/07/17 05:47:13;;;;;;;4.65;2.65;;;;;;;26.24;35.63;102843.16;5094343;28;20063;-78
2022/07/17 05:49:38;;;;;;;10.07;2.45;;;;;;;26.33;35.15;102837.41;5093571;28;20024;-79
2022/07/17 05:52:04;;;;;;;3.28;2.13;;;;;;;26.24;35.64;102840.50;5093890;28;20027;-78
2022/07/17 05:54:29;;;;;;;4.20;1.85;;;;;;;26.06;35.82;102844.88;5094257;28;20028;-78
2022/07/17 05:56:54;;;;;;;5.75;2.40;;;;;;;25.85;36.07;102842.16;5092765;28;20023;-78
2022/07/17 05:59:20;;;;;;;4.60;2.15;;;;;;;25.65;36.56;102850.16;5094006;28;20020;-79
2022/07/17 06:01:45;;;;;;;5.20;2.20;;;;;;;26.01;35.36;102852.22;5093723;28;20373;-78
2022/07/17 06:04:11;;;;;;;4.85;2.33;;;;;;;26.23;34.93;102853.03;5093102;28;20491;-79
2022/07/17 06:06:36;;;;;;;6.82;2.20;;;;;;;26.56;34.45;102854.25;5093570;28;20460;-78
2022/07/17 06:09:02;;;;;;;5.60;2.40;;;;;;;26.27;35.03;102852.88;5094852;28;20035;-78
2022/07/17 06:11:27;;;;;;;5.80;2.03;;;;;;;26.44;34.68;102855.69;5093036;28;20020;-78
2022/07/17 06:13:53;;;;;;;5.18;2.40;;;;;;;26.34;34.97;102859.75;5093515;28;20023;-78
2022/07/17 06:16:18;;;;;;;4.43;1.70;;;;;;;26.81;34.93;102864.72;5093616;28;20053;-78
2022/07/17 06:18:43;;;;;;;3.75;1.58;;;;;;;27.14;33.98;102866.75;5092645;28;20031;-78
2022/07/17 06:21:09;;;;;;;4.80;1.50;;;;;;;27.29;33.51;102877.69;5093619;28;20024;-79
2022/07/17 06:23:34;;;;;;;4.22;2.00;;;;;;;27.14;33.89;102871.25;5093335;28;20031;-79
2022/07/17 06:25:59;;;;;;;2.85;1.42;;;;;;;27.53;33.74;102868.44;5094804;28;20035;-79
2022/07/17 06:28:25;;;;;;;5.50;1.60;;;;;;;27.65;33.34;102877.69;5093317;28;20035;-79
2022/07/17 06:30:50;;;;;;;4.03;1.70;;;;;;;28.00;32.89;102879.53;5092879;28;20031;-79
2022/07/17 06:33:15;;;;;;;3.55;1.67;;;;;;;28.47;32.44;102886.91;5093514;28;20472;-80
2022/07/17 06:35:41;;;;;;;3.28;1.05;;;;;;;29.48;29.55;102876.81;5093397;28;20020;-79
2022/07/17 06:38:06;;;;;;;4.97;1.27;;;;;;;30.10;28.71;102881.25;5094099;28;20028;-79
2022/07/17 06:40:32;;;;;;;4.60;1.05;;;;;;;33.11;25.05;102887.22;5092861;28;20016;-78
2022/07/17 06:42:57;;;;;;;3.13;1.35;;;;;;;32.69;25.58;102889.41;5093063;28;20520;-78
2022/07/17 06:45:23;;;;;;;4.40;1.23;;;;;;;33.96;24.27;102897.09;5092595;28;20552;-79
2022/07/17 06:47:48;;;;;;;3.75;1.23;;;;;;;35.93;21.40;102890.97;5093246;28;20028;-79
2022/07/17 06:50:14;;;;;;;7.03;1.30;;;;;;;35.22;22.31;102896.97;5092784;28;20027;-79
2022/07/17 06:52:39;;;;;;;6.07;1.20;;;;;;;35.42;22.29;102899.88;5092672;28;20035;-79
2022/07/17 06:55:05;;;;;;;4.72;1.45;;;;;;;36.03;20.71;102890.19;5093090;28;20023;-80
2022/07/17 06:57:30;;;;;;;5.68;1.33;;;;;;;35.10;21.10;102900.69;5092896;28;20454;-79
2022/07/17 06:59:56;;;;;;;4.60;0.98;;;;;;;37.07;19.40;102890.00;5092731;28;20062;-79
2022/07/17 07:02:21;;;;;;;2.95;0.73;;;;;;;36.93;20.21;102891.28;5092912;28;20417;-79
2022/07/17 07:04:46;;;;;;;4.75;1.08;;;;;;;35.67;20.28;102896.78;5092871;28;20023;-79
2022/07/17 07:07:12;;;;;;;2.17;0.80;;;;;;;35.93;19.81;102912.75;5091722;28;20035;-79
2022/07/17 07:09:38;;;;;;;3.33;0.95;;;;;;;38.12;19.55;102908.31;5092682;28;20031;-79
2022/07/17 07:12:03;;;;;;;2.55;0.90;;;;;;;37.04;19.77;102909.34;5092718;28;20156;-80
2022/07/17 07:14:29;;;;;;;3.97;1.00;;;;;;;37.21;19.74;102916.84;5091782;28;20063;-79
2022/07/17 07:16:54;;;;;;;4.20;0.88;;;;;;;38.55;19.20;102910.63;5093120;28;20035;-79
2022/07/17 07:19:20;;;;;;;7.13;0.80;;;;;;;39.03;18.89;102913.09;5092521;28;20032;-79
2022/07/17 07:21:45;;;;;;;3.10;0.90;;;;;;;39.67;17.45;102918.50;5091674;28;20028;-79
2022/07/17 07:24:10;;;;;;;2.70;1.02;;;;;;;39.78;17.78;102919.28;5092206;28;20024;-79
2022/07/17 07:26:36;;;;;;;5.85;0.98;;;;;;;39.28;17.36;102915.22;5092463;28;20092;-79
2022/07/17 07:29:01;;;;;;;2.17;0.75;;;;;;;38.97;17.46;102908.22;5091292;28;20023;-79
2022/07/17 07:31:27;;;;;;;4.03;0.85;;;;;;;38.19;18.10;102903.97;5091998;28;20514;-78
2022/07/17 07:33:52;;;;;;;1.35;0.77;;;;;;;38.77;17.69;102909.38;5091743;28;20107;-78
2022/07/17 07:36:17;;;;;;;3.47;0.98;;;;;;;38.78;18.68;102903.75;5092045;28;20036;-79
2022/07/17 07:38:45;;;;;;;5.03;0.75;;;;;;;37.65;19.05;102900.09;5091756;28;20106;-79
2022/07/17 07:41:10;;;;;;;3.40;0.88;;;;;;;37.66;18.89;102902.66;5091074;28;20078;-79
2022/07/17 07:43:36;;;;;;;2.55;0.77;;;;;;;39.31;18.78;102899.38;5092959;28;20467;-78
2022/07/17 07:46:03;;;;;;;3.00;1.00;;;;;;;38.07;19.73;102898.84;5091784;28;20058;-79
2022/07/17 07:48:28;;;;;;;4.32;1.13;;;;;;;38.53;17.18;102895.25;5091191;28;20027;-79
2022/07/17 07:50:54;;;;;;;2.33;0.90;;;;;;;38.14;18.14;102889.94;5091990;28;20027;-79
2022/07/17 07:53:19;;;;;;;2.80;0.85;;;;;;;38.62;18.12;102893.50;5091426;28;20547;-78
2022/07/17 07:55:45;;;;;;;4.53;1.25;;;;;;;39.70;17.25;102893.56;5091139;28;20108;-78
2022/07/17 07:58:12;;;;;;;4.65;1.20;;;;;;;39.46;17.30;102890.59;5091681;28;20479;-78
2022/07/17 08:00:39;;;;;;;5.22;1.08;;;;;;;40.46;16.25;102887.50;5091372;28;20051;-78
2022/07/17 08:03:06;;;;;;;1.65;0.88;;;;;;;39.29;16.21;102893.19;5090640;28;20146;-78
2022/07/17 08:05:31;;;;;;;5.90;0.98;;;;;;;36.82;18.85;102892.25;5091007;28;20023;-78
2022/07/17 08:07:57;;;;;;;2.50;0.90;;;;;;;39.13;16.41;102903.94;5091520;28;20024;-77
2022/07/17 08:10:22;;;;;;;3.78;1.00;;;;;;;37.06;18.99;102900.03;5090796;28;20055;-78
2022/07/17 08:12:48;;;;;;;3.15;0.90;;;;;;;37.50;19.52;102902.38;5091367;28;20559;-77
2022/07/17 08:15:15;;;;;;;5.95;1.05;;;;;;;37.69;18.34;102891.44;5091212;28;20058;-77
2022/07/17 08:17:41;;;;;;;4.55;1.48;;;;;;;39.52;16.78;102895.44;5091580;28;20110;-77
2022/07/17 08:20:07;;;;;;;2.70;0.70;;;;;;;39.68;18.24;102895.59;5092604;28;20028;-77
2022/07/17 08:22:32;;;;;;;3.05;0.90;;;;;;;39.77;17.75;102879.25;5091139;28;20034;-77
2022/07/17 08:24:58;;;;;;;3.50;1.02;;;;;;;40.12;16.77;102885.63;5090335;28;20032;-77
2022/07/17 08:27:24;;;;;;;5.35;2.63;;;;;;;38.76;18.52;102883.06;5091266;28;20031;-77
2022/07/17 08:29:49;;;;;;;3.85;1.92;;;;;;;40.23;19.30;102877.16;5090736;28;20097;-77
2022/07/17 08:32:15;;;;;;;4.57;1.10;;;;;;;40.48;15.32;102879.97;5090556;28;20510;-76
2022/07/17 08:34:40;;;;;;;1.75;0.65;;;;;;;39.78;16.22;102878.22;5092110;28;20024;-76
2022/07/17 08:37:06;;;;;;;2.35;0.82;;;;;;;40.08;16.18;102884.22;5090964;28;20016;-77
2022/07/17 08:39:31;;;;;;;5.00;1.17;;;;;;;40.56;16.21;102882.78;5090204;28;20024;-76
2022/07/17 08:41:56;;;;;;;5.82;0.88;;;;;;;40.98;15.44;102881.00;5092112;28;20077;-76
2022/07/17 08:44:22;;;;;;;1.65;0.90;;;;;;;38.05;18.75;102866.25;5089956;28;20514;-77
2022/07/17 08:46:48;;;;;;;4.05;1.00;;;;;;;37.51;18.37;102872.25;5091937;28;20025;-77
2022/07/17 08:49:13;;;;;;;2.53;0.90;;;;;;;39.72;18.39;102884.34;5090802;28;20028;-77
2022/07/17 08:51:39;;;;;;;1.30;0.70;;;;;;;40.97;16.11;102880.16;5090052;28;20566;-77
2022/07/17 08:54:04;;;;;;;3.55;0.88;;;;;;;40.08;18.29;102873.28;5090674;28;20032;-77
2022/07/17 08:56:30;;;;;;;2.75;0.80;;;;;;;40.31;15.66;102871.69;5091845;28;20460;-76
2022/07/17 08:58:55;;;;;;;0.98;0.63;;;;;;;37.52;16.90;102873.09;5091243;28;20595;-76
2022/07/17 09:01:22;;;;;;;3.78;0.98;;;;;;;39.16;16.56;102873.63;5090472;28;20499;-77
2022/07/17 09:04:06;;;;;;;2.80;1.00;;;;;;;40.79;15.71;102877.50;5090871;28;20043;-76
2022/07/17 09:06:34;;;;;;;2.42;0.80;;;;;;;40.78;17.16;102863.97;5089842;28;20369;-76
2022/07/17 09:09:09;;;;;;;2.45;0.77;;;;;;;39.61;16.89;102869.91;5091218;28;20043;-77
2022/07/17 09:11:43;;;;;;;2.60;0.80;;;;;;;39.57;17.96;102871.22;5090467;28;20108;-77
2022/07/17 09:14:09;;;;;;;2.20;0.68;;;;;;;38.48;16.45;102881.16;5090005;28;20433;-77
2022/07/17 09:16:36;;;;;;;3.72;0.68;;;;;;;39.55;17.50;102878.72;5090449;28;20026;-76
2022/07/17 09:19:01;;;;;;;4.80;1.00;;;;;;;41.37;15.36;102875.75;5090545;28;20039;-76
2022/07/17 09:21:29;;;;;;;2.33;0.63;;;;;;;42.49;15.33;102868.59;5089723;28;20468;-77
2022/07/17 09:24:07;;;;;;;3.17;1.00;;;;;;;41.54;14.69;102881.22;5090611;28;20020;-77
2022/07/17 09:26:34;;;;;;;2.78;0.70;;;;;;;41.81;14.38;102877.25;5089500;28;20024;-77
2022/07/17 09:29:04;;;;;;;1.90;0.80;;;;;;;39.28;17.81;102883.28;5091815;28;20028;-77
2022/07/17 09:31:31;;;;;;;2.72;0.80;;;;;;;42.05;15.67;102881.81;5092055;28;20028;-78
2022/07/17 09:33:57;;;;;;;2.60;0.80;;;;;;;40.14;15.36;102883.59;5093284;28;20507;-76
2022/07/17 09:36:23;;;;;;;1.45;0.93;;;;;;;40.37;15.64;102873.75;5093913;28;20028;-76
2022/07/17 09:38:53;;;;;;;3.50;1.00;;;;;;;39.27;15.53;102880.69;5093868;28;20020;-76
2022/07/17 09:41:20;;;;;;;1.77;0.82;;;;;;;38.72;17.82;102870.72;5093001;28;20490;-76
2022/07/17 09:43:57;;;;;;;4.10;1.08;;;;;;;39.16;16.16;102877.19;5093447;28;20077;-76
2022/07/17 09:46:28;;;;;;;3.33;0.90;;;;;;;39.70;15.38;102871.66;5074767;28;20024;-76
2022/07/17 09:48:56;;;;;;;1.25;0.85;;;;;;;41.16;15.76;102875.38;5056246;28;20028;-76
2022/07/17 09:51:30;;;;;;;0.98;0.90;;;;;;;39.97;17.73;102867.06;5056725;28;20056;-77
2022/07/17 09:53:58;;;;;;;1.50;0.75;;;;;;;39.00;15.29;102872.38;5056990;28;20024;-77
2022/07/17 09:56:26;;;;;;;2.08;1.05;;;;;;;41.30;14.38;102873.81;5056327;28;20024;-76
2022/07/17 09:58:59;;;;;;;3.80;0.77;;;;;;;40.64;15.60;102874.59;5056705;28;20023;-77
2022/07/17 10:01:25;;;;;;;2.13;0.90;;;;;;;40.92;16.03;102866.06;5057098;28;20036;-77
2022/07/17 10:03:53;;;;;;;1.15;0.57;;;;;;;41.09;15.57;102871.59;5073929;28;20024;-77
2022/07/17 10:06:18;;;;;;;2.25;1.00;;;;;;;39.57;16.16;102865.75;5056546;28;20025;-77
2022/07/17 10:08:44;;;;;;;1.52;0.90;;;;;;;40.09;16.94;102869.53;5055940;28;20024;-77
2022/07/17 10:11:10;;;;;;;2.78;0.80;;;;;;;40.53;16.50;102866.66;5056528;28;20518;-76
2022/07/17 10:13:38;;;;;;;3.75;1.30;;;;;;;40.97;16.50;102874.69;5056557;28;20028;-77
2022/07/17 10:16:04;;;;;;;2.17;0.88;;;;;;;40.82;14.61;102873.56;5055836;28;20074;-76
2022/07/17 10:18:35;;;;;;;1.75;0.85;;;;;;;40.44;16.78;102871.22;5074538;28;20074;-76
2022/07/17 10:21:27;;;;;;;2.30;0.93;;;;;;;39.90;18.65;102871.47;5076174;28;20024;-76
2022/07/17 10:23:52;;;;;;;3.58;0.90;;;;;;;36.82;18.92;102871.34;5069312;28;20044;-77
2022/07/17 10:26:46;;;;;;;3.15;1.67;;;;;;;39.42;17.21;102873.66;5075528;28;20035;-76
2022/07/17 10:29:38;;;;;;;2.35;1.00;;;;;;;38.44;17.52;102873.44;5057281;28;20020;-76
2022/07/17 10:32:08;;;;;;;3.22;1.10;;;;;;;39.89;17.04;102875.22;5057899;28;20547;-77
2022/07/17 10:34:39;;;;;;;2.33;1.08;;;;;;;38.46;17.54;102882.38;5058574;28;20031;-76
2022/07/17 10:37:25;;;;;;;1.80;1.00;;;;;;;39.61;17.05;102878.13;5057194;28;20044;-76
2022/07/17 10:39:56;;;;;;;1.98;0.90;;;;;;;38.47;17.49;102878.59;5057011;28;20016;-76
2022/07/17 10:42:58;;;;;;;2.05;1.00;;;;;;;39.26;17.22;102871.63;5056244;28;20024;-77
2022/07/17 10:45:34;;;;;;;1.88;0.80;;;;;;;39.47;17.88;102876.75;5075527;28;20093;-76
2022/07/17 10:48:02;;;;;;;2.67;0.98;;;;;;;39.35;17.15;102884.38;5057761;28;20028;-76
2022/07/17 10:50:30;;;;;;;1.15;0.85;;;;;;;39.46;16.41;102879.66;5057662;28;20025;-76
2022/07/17 10:52:58;;;;;;;1.30;0.80;;;;;;;39.39;17.21;102886.78;5056526;28;20025;-77
2022/07/17 10:55:23;;;;;;;1.10;0.90;;;;;;;40.12;16.71;102891.09;5057425;28;20077;-76
2022/07/17 10:57:49;;;;;;;2.25;0.70;;;;;;;39.86;16.22;102886.50;5057874;28;20028;-76
2022/07/17 11:00:18;;;;;;;0.90;0.75;;;;;;;39.72;17.13;102878.84;5055722;28;20077;-78
2022/07/17 11:02:44;;;;;;;2.03;0.70;;;;;;;37.18;17.74;102882.56;5055872;28;20523;-76
2022/07/17 11:05:12;;;;;;;2.15;0.93;;;;;;;38.28;17.97;102883.16;5054743;28;20495;-76
2022/07/17 11:07:51;;;;;;;2.25;0.82;;;;;;;39.99;16.14;102878.69;5073893;28;20021;-76
2022/07/17 11:10:17;;;;;;;1.33;0.90;;;;;;;39.73;16.73;102880.59;5057100;28;20072;-76
2022/07/17 11:12:42;;;;;;;3.00;1.00;;;;;;;38.32;19.49;102876.38;5056889;28;20055;-76
2022/07/17 11:15:08;;;;;;;2.25;0.98;;;;;;;38.78;17.45;102881.91;5057876;28;20029;-76
2022/07/17 11:17:33;;;;;;;1.73;0.93;;;;;;;38.48;17.75;102885.78;5056557;28;20024;-75
2022/07/17 11:19:59;;;;;;;1.83;0.75;;;;;;;38.43;17.89;102882.66;5056368;28;20031;-76
2022/07/17 11:22:25;;;;;;;2.28;0.80;;;;;;;38.69;18.34;102872.75;5075682;28;20581;-76